Time,TemperatureF,DewpointF,PressureIn,WindDirection,WindDirectionDegrees,WindSpeedMPH,WindSpeedGustMPH,Humidity,HourlyPrecipIn,Conditions,Clouds,dailyrainin,SoftwareType,DateUTC
2013-04-16 00:02:00,52.2,27.8,29.63,South,185,4.0,8.0,39,0.00,,,0.00,WUHU216DAVISVP2,2013-04-16 07:02:00,
2013-04-16 00:07:00,51.7,28.6,29.63,SSW,200,8.0,10.0,41,0.00,,,0.00,WUHU216DAVISVP2,2013-04-16 07:07:00,
2013-04-16 00:12:00,51.3,28.8,29.64,SW,220,13.0,16.0,42,0.00,,,0.00,WUHU216DAVISVP2,2013-04-16 07:12:00,
2013-04-16 00:17:00,50.9,29.1,29.64,SW,236,5.0,16.0,43,0.00,,,0.00,WUHU216DAVISVP2,2013-04-16 07:17:00,
2013-04-16 00:23:00,50.4,28.6,29.64,WSW,242,12.0,19.0,43,0.00,,,0.00,WUHU216DAVISVP2,2013-04-16 07:23:00,
2013-04-16 00:28:00,50.0,28.2,29.65,West,276,6.0,19.0,43,0.00,,,0.00,WUHU216DAVISVP2,2013-04-16 07:28:00,
2013-04-16 00:33:00,49.6,28.4,29.65,SW,234,15.0,19.0,44,0.00,,,0.00,WUHU216DAVISVP2,2013-04-16 07:33:00,
2013-04-16 00:38:00,49.1,28.0,29.65,WSW,240,12.0,20.0,44,0.00,,,0.00,WUHU216DAVISVP2,2013-04-16 07:38:00,
2013-04-16 00:43:00,48.7,28.2,29.66,WSW,251,12.0,20.0,45,0.00,,,0.00,WUHU216DAVISVP2,2013-04-16 07:43:00,
2013-04-16 00:48:00,48.5,28.0,29.66,WSW,244,8.0,20.0,45,0.00,,,0.00,WUHU216DAVISVP2,2013-04-16 07:48:00,
2013-04-16 00:53:00,48.2,27.7,29.66,SW,236,10.0,20.0,45,0.00,,,0.00,WUHU216DAVISVP2,2013-04-16 07:53:00,
2013-04-16 00:58:00,47.9,28.0,29.67,SW,223,9.0,18.0,46,0.00,,,0.00,WUHU216DAVISVP2,2013-04-16 07:58:00,
2013-04-16 01:03:00,47.7,27.8,29.67,WSW,244,13.0,18.0,46,0.00,,,0.00,WUHU216DAVISVP2,2013-04-16 08:03:00,
2013-04-16 01:08:00,47.5,27.6,29.67,SSW,200,4.0,18.0,46,0.00,,,0.00,WUHU216DAVISVP2,2013-04-16 08:08:00,
2013-04-16 01:13:00,47.4,27.0,29.67,SW,228,12.0,17.0,45,0.00,,,0.00,WUHU216DAVISVP2,2013-04-16 08:13:00,
2013-04-16 01:18:00,47.2,26.8,29.67,SW,222,9.0,17.0,45,0.00,,,0.00,WUHU216DAVISVP2,2013-04-16 08:18:00,
2013-04-16 01:24:00,46.8,27.0,29.68,WSW,237,11.0,20.0,46,0.00,,,0.00,WUHU216DAVISVP2,2013-04-16 08:24:00,
2013-04-16 01:29:00,46.2,27.0,29.68,WSW,254,14.0,22.0,47,0.00,,,0.00,WUHU216DAVISVP2,2013-04-16 08:29:00,
2013-04-16 01:34:00,45.7,27.1,29.67,WSW,238,13.0,22.0,48,0.00,,,0.00,WUHU216DAVISVP2,2013-04-16 08:34:00,
2013-04-16 01:39:00,45.5,26.9,29.67,SW,227,18.0,22.0,48,0.00,,,0.00,WUHU216DAVISVP2,2013-04-16 08:39:00,
2013-04-16 01:44:00,45.3,26.7,29.68,WSW,237,11.0,22.0,48,0.00,,,0.00,WUHU216DAVISVP2,2013-04-16 08:44:00,
2013-04-16 01:49:00,44.8,26.7,29.67,WSW,238,10.0,21.0,49,0.00,,,0.00,WUHU216DAVISVP2,2013-04-16 08:49:00,
2013-04-16 01:54:00,44.3,26.8,29.68,WSW,244,15.0,22.0,50,0.00,,,0.00,WUHU216DAVISVP2,2013-04-16 08:54:00,
2013-04-16 01:59:00,44.1,27.1,29.68,WSW,248,18.0,22.0,51,0.00,,,0.00,WUHU216DAVISVP2,2013-04-16 08:59:00,
2013-04-16 02:04:00,44.1,26.6,29.68,WSW,245,14.0,23.0,50,0.00,,,0.00,WUHU216DAVISVP2,2013-04-16 09:04:00,
2013-04-16 02:09:00,44.3,26.3,29.68,WSW,238,14.0,23.0,49,0.00,,,0.00,WUHU216DAVISVP2,2013-04-16 09:09:00,
2013-04-16 02:14:00,44.5,26.5,29.69,WSW,239,14.0,23.0,49,0.00,,,0.00,WUHU216DAVISVP2,2013-04-16 09:14:00,
2013-04-16 02:19:00,44.6,26.0,29.69,SW,236,9.0,23.0,48,0.00,,,0.00,WUHU216DAVISVP2,2013-04-16 09:19:00,
2013-04-16 02:24:00,44.5,25.9,29.69,WSW,256,9.0,21.0,48,0.00,,,0.00,WUHU216DAVISVP2,2013-04-16 09:24:00,
2013-04-16 02:30:00,44.6,25.5,29.69,SW,223,3.0,19.0,47,0.00,,,0.00,WUHU216DAVISVP2,2013-04-16 09:30:00,
2013-04-16 02:35:00,44.4,26.4,29.70,SE,146,3.0,19.0,49,0.00,,,0.00,WUHU216DAVISVP2,2013-04-16 09:35:00,
2013-04-16 02:40:00,44.2,25.7,29.70,SSE,149,3.0,17.0,48,0.00,,,0.00,WUHU216DAVISVP2,2013-04-16 09:40:00,
2013-04-16 02:45:00,44.1,26.1,29.70,SE,138,2.0,11.0,49,0.00,,,0.00,WUHU216DAVISVP2,2013-04-16 09:45:00,
2013-04-16 02:50:00,43.7,25.7,29.70,NE,40,2.0,9.0,49,0.00,,,0.00,WUHU216DAVISVP2,2013-04-16 09:50:00,
2013-04-16 02:55:00,43.8,25.3,29.70,NE,45,3.0,9.0,48,0.00,,,0.00,WUHU216DAVISVP2,2013-04-16 09:55:00,
2013-04-16 03:00:00,43.6,25.1,29.70,NE,45,1.0,8.0,48,0.00,,,0.00,WUHU216DAVISVP2,2013-04-16 10:00:00,
2013-04-16 03:05:00,43.1,25.2,29.70,NE,45,3.0,8.0,49,0.00,,,0.00,WUHU216DAVISVP2,2013-04-16 10:05:00,
2013-04-16 03:10:00,43.1,24.7,29.71,South,179,3.0,8.0,48,0.00,,,0.00,WUHU216DAVISVP2,2013-04-16 10:10:00,
2013-04-16 03:15:00,43.6,24.6,29.71,SSW,205,7.0,11.0,47,0.00,,,0.00,WUHU216DAVISVP2,2013-04-16 10:15:00,
2013-04-16 03:20:00,43.8,24.2,29.71,SW,217,8.0,11.0,46,0.00,,,0.00,WUHU216DAVISVP2,2013-04-16 10:20:00,
2013-04-16 03:25:00,43.9,23.2,29.72,WSW,242,10.0,14.0,44,0.00,,,0.00,WUHU216DAVISVP2,2013-04-16 10:25:00,
2013-04-16 03:31:00,43.9,23.2,29.72,West,262,7.0,14.0,44,0.00,,,0.00,WUHU216DAVISVP2,2013-04-16 10:31:00,
2013-04-16 03:36:00,43.7,22.5,29.72,West,263,3.0,14.0,43,0.00,,,0.00,WUHU216DAVISVP2,2013-04-16 10:36:00,
2013-04-16 03:41:00,43.5,23.4,29.72,West,263,0.0,14.0,45,0.00,,,0.00,WUHU216DAVISVP2,2013-04-16 10:41:00,
2013-04-16 03:46:00,43.3,22.7,29.73,NW,321,6.0,12.0,44,0.00,,,0.00,WUHU216DAVISVP2,2013-04-16 10:46:00,
2013-04-16 03:51:00,43.3,22.7,29.73,NNW,336,6.0,11.0,44,0.00,,,0.00,WUHU216DAVISVP2,2013-04-16 10:51:00,
2013-04-16 03:56:00,43.1,22.0,29.73,NNW,337,0.0,7.0,43,0.00,,,0.00,WUHU216DAVISVP2,2013-04-16 10:56:00,
2013-04-16 04:01:00,42.6,22.1,29.73,West,281,0.0,8.0,44,0.00,,,0.00,WUHU216DAVISVP2,2013-04-16 11:01:00,
2013-04-16 04:06:00,42.5,22.0,29.73,NNW,336,4.0,8.0,44,0.00,,,0.00,WUHU216DAVISVP2,2013-04-16 11:06:00,
2013-04-16 04:11:00,42.3,21.8,29.74,NNW,338,1.0,8.0,44,0.00,,,0.00,WUHU216DAVISVP2,2013-04-16 11:11:00,
2013-04-16 04:16:00,42.2,21.1,29.74,West,280,3.0,8.0,43,0.00,,,0.00,WUHU216DAVISVP2,2013-04-16 11:16:00,
2013-04-16 04:21:00,42.1,20.5,29.74,WNW,293,1.0,7.0,42,0.00,,,0.00,WUHU216DAVISVP2,2013-04-16 11:21:00,
2013-04-16 04:27:00,42.5,20.3,29.74,WNW,296,5.0,9.0,41,0.00,,,0.00,WUHU216DAVISVP2,2013-04-16 11:27:00,
2013-04-16 04:32:00,42.0,20.4,29.74,WNW,294,1.0,9.0,42,0.00,,,0.00,WUHU216DAVISVP2,2013-04-16 11:32:00,
2013-04-16 04:37:00,41.8,20.2,29.74,WNW,292,4.0,9.0,42,0.00,,,0.00,WUHU216DAVISVP2,2013-04-16 11:37:00,
2013-04-16 04:42:00,41.1,19.6,29.74,West,279,1.0,9.0,42,0.00,,,0.00,WUHU216DAVISVP2,2013-04-16 11:42:00,
2013-04-16 04:47:00,40.7,19.8,29.73,West,279,4.0,6.0,43,0.00,,,0.00,WUHU216DAVISVP2,2013-04-16 11:47:00,
2013-04-16 04:52:00,40.6,19.1,29.74,West,279,5.0,8.0,42,0.00,,,0.00,WUHU216DAVISVP2,2013-04-16 11:52:00,
2013-04-16 04:57:00,41.2,18.5,29.74,SSW,213,5.0,13.0,40,0.00,,,0.00,WUHU216DAVISVP2,2013-04-16 11:57:00,
2013-04-16 05:02:00,41.6,18.3,29.74,NNW,340,7.0,13.0,39,0.00,,,0.00,WUHU216DAVISVP2,2013-04-16 12:02:00,
2013-04-16 05:07:00,41.5,18.2,29.75,WSW,252,12.0,13.0,39,0.00,,,0.00,WUHU216DAVISVP2,2013-04-16 12:07:00,
2013-04-16 05:12:00,41.5,18.2,29.75,WSW,241,7.0,12.0,39,0.00,,,0.00,WUHU216DAVISVP2,2013-04-16 12:12:00,
2013-04-16 05:17:00,41.7,18.3,29.75,SW,227,7.0,12.0,39,0.00,,,0.00,WUHU216DAVISVP2,2013-04-16 12:17:00,
2013-04-16 05:23:00,41.9,17.3,29.75,SSW,213,7.0,12.0,37,0.00,,,0.00,WUHU216DAVISVP2,2013-04-16 12:23:00,
2013-04-16 05:28:00,41.5,18.8,29.75,SW,230,12.0,13.0,40,0.00,,,0.00,WUHU216DAVISVP2,2013-04-16 12:28:00,
2013-04-16 05:33:00,41.4,18.7,29.75,SW,228,9.0,16.0,40,0.00,,,0.00,WUHU216DAVISVP2,2013-04-16 12:33:00,
2013-04-16 05:38:00,42.0,18.6,29.76,WSW,244,11.0,16.0,39,0.00,,,0.00,WUHU216DAVISVP2,2013-04-16 12:38:00,
2013-04-16 05:43:00,42.3,18.3,29.76,West,274,10.0,16.0,38,0.00,,,0.00,WUHU216DAVISVP2,2013-04-16 12:43:00,
2013-04-16 05:48:00,43.6,17.5,29.75,WNW,285,7.0,14.0,35,0.00,,,0.00,WUHU216DAVISVP2,2013-04-16 12:48:00,
2013-04-16 05:53:00,42.5,18.4,29.76,WSW,244,15.0,20.0,38,0.00,,,0.00,WUHU216DAVISVP2,2013-04-16 12:53:00,
2013-04-16 05:58:00,42.7,18.6,29.75,WSW,252,12.0,20.0,38,0.00,,,0.00,WUHU216DAVISVP2,2013-04-16 12:58:00,
2013-04-16 06:03:00,43.3,18.5,29.75,SW,219,17.0,20.0,37,0.00,,,0.00,WUHU216DAVISVP2,2013-04-16 13:03:00,
2013-04-16 06:08:00,42.3,18.9,29.76,WNW,284,10.0,20.0,39,0.00,,,0.00,WUHU216DAVISVP2,2013-04-16 13:08:00,
2013-04-16 06:13:00,41.6,20.2,29.76,WSW,256,4.0,20.0,42,0.00,,,0.00,WUHU216DAVISVP2,2013-04-16 13:13:00,
2013-04-16 06:19:00,41.4,20.0,29.76,WSW,241,13.0,20.0,42,0.00,,,0.00,WUHU216DAVISVP2,2013-04-16 13:19:00,
2013-04-16 06:24:00,42.1,19.5,29.76,SW,223,15.0,19.0,40,0.00,,,0.00,WUHU216DAVISVP2,2013-04-16 13:24:00,
2013-04-16 06:29:00,42.1,20.1,29.77,West,280,16.0,19.0,41,0.00,,,0.00,WUHU216DAVISVP2,2013-04-16 13:29:00,
2013-04-16 06:34:00,41.5,20.5,29.77,WSW,251,7.0,19.0,43,0.00,,,0.00,WUHU216DAVISVP2,2013-04-16 13:34:00,
2013-04-16 06:39:00,42.6,20.3,29.77,WNW,291,15.0,21.0,41,0.00,,,0.00,WUHU216DAVISVP2,2013-04-16 13:39:00,
2013-04-16 06:44:00,44.2,20.6,29.77,West,277,16.0,27.0,39,0.00,,,0.00,WUHU216DAVISVP2,2013-04-16 13:44:00,
2013-04-16 06:49:00,44.5,20.9,29.77,WNW,289,19.0,27.0,39,0.00,,,0.00,WUHU216DAVISVP2,2013-04-16 13:49:00,
2013-04-16 06:54:00,44.6,20.3,29.77,WNW,282,22.0,27.0,38,0.00,,,0.00,WUHU216DAVISVP2,2013-04-16 13:54:00,
2013-04-16 06:59:00,44.8,21.1,29.77,West,267,14.0,27.0,39,0.00,,,0.00,WUHU216DAVISVP2,2013-04-16 13:59:00,
2013-04-16 07:04:00,44.7,21.8,29.76,West,276,12.0,29.0,40,0.00,,,0.00,WUHU216DAVISVP2,2013-04-16 14:04:00,
2013-04-16 07:09:00,44.7,21.8,29.76,West,267,13.0,34.0,40,0.00,,,0.00,WUHU216DAVISVP2,2013-04-16 14:09:00,
2013-04-16 07:15:00,45.0,21.5,29.77,WNW,295,26.0,34.0,39,0.00,,,0.00,WUHU216DAVISVP2,2013-04-16 14:15:00,
2013-04-16 07:20:00,45.2,21.5,29.77,WNW,286,19.0,34.0,39,0.00,,,0.00,WUHU216DAVISVP2,2013-04-16 14:20:00,
2013-04-16 07:25:00,45.4,21.7,29.77,WNW,289,21.0,34.0,39,0.00,,,0.00,WUHU216DAVISVP2,2013-04-16 14:25:00,
2013-04-16 07:30:00,45.6,21.9,29.77,WNW,298,27.0,34.0,39,0.00,,,0.00,WUHU216DAVISVP2,2013-04-16 14:30:00,
2013-04-16 07:35:00,45.7,21.9,29.77,WNW,299,25.0,37.0,39,0.00,,,0.00,WUHU216DAVISVP2,2013-04-16 14:35:00,
2013-04-16 07:40:00,46.0,22.2,29.77,WNW,287,15.0,37.0,39,0.00,,,0.00,WUHU216DAVISVP2,2013-04-16 14:40:00,
2013-04-16 07:45:00,46.1,21.7,29.78,WNW,286,25.0,37.0,38,0.00,,,0.00,WUHU216DAVISVP2,2013-04-16 14:45:00,
2013-04-16 07:50:00,46.3,21.9,29.78,WNW,300,21.0,37.0,38,0.00,,,0.00,WUHU216DAVISVP2,2013-04-16 14:50:00,
2013-04-16 07:55:00,46.5,21.4,29.78,WNW,293,19.0,35.0,37,0.00,,,0.00,WUHU216DAVISVP2,2013-04-16 14:55:00,
2013-04-16 08:00:00,47.0,21.2,29.78,West,270,22.0,36.0,36,0.00,,,0.00,WUHU216DAVISVP2,2013-04-16 15:00:00,
2013-04-16 08:05:00,47.1,21.3,29.79,WNW,302,13.0,36.0,36,0.00,,,0.00,WUHU216DAVISVP2,2013-04-16 15:05:00,
2013-04-16 08:11:00,47.4,20.9,29.78,WNW,282,13.0,36.0,35,0.00,,,0.00,WUHU216DAVISVP2,2013-04-16 15:11:00,
2013-04-16 08:16:00,47.8,21.2,29.78,WNW,292,21.0,36.0,35,0.00,,,0.00,WUHU216DAVISVP2,2013-04-16 15:16:00,
2013-04-16 08:21:00,47.9,21.3,29.78,WNW,286,23.0,39.0,35,0.00,,,0.00,WUHU216DAVISVP2,2013-04-16 15:21:00,
2013-04-16 08:26:00,48.1,20.1,29.78,West,279,19.0,39.0,33,0.00,,,0.00,WUHU216DAVISVP2,2013-04-16 15:26:00,
2013-04-16 08:31:00,48.5,19.7,29.78,West,267,16.0,39.0,32,0.00,,,0.00,WUHU216DAVISVP2,2013-04-16 15:31:00,
2013-04-16 08:36:00,48.9,19.3,29.79,WNW,300,17.0,39.0,31,0.00,,,0.00,WUHU216DAVISVP2,2013-04-16 15:36:00,
2013-04-16 08:41:00,49.0,20.2,29.79,WNW,294,20.0,35.0,32,0.00,,,0.00,WUHU216DAVISVP2,2013-04-16 15:41:00,
2013-04-16 08:46:00,49.5,19.9,29.80,WNW,288,17.0,35.0,31,0.00,,,0.00,WUHU216DAVISVP2,2013-04-16 15:46:00,
2013-04-16 08:51:00,49.4,19.0,29.79,NW,312,23.0,35.0,30,0.00,,,0.00,WUHU216DAVISVP2,2013-04-16 15:51:00,
2013-04-16 08:56:00,49.6,19.2,29.79,West,280,16.0,31.0,30,0.00,,,0.00,WUHU216DAVISVP2,2013-04-16 15:56:00,
2013-04-16 09:01:00,50.1,19.6,29.80,NW,309,11.0,30.0,30,0.00,,,0.00,WUHU216DAVISVP2,2013-04-16 16:01:00,
2013-04-16 09:07:00,50.1,18.8,29.80,WNW,292,23.0,34.0,29,0.00,,,0.00,WUHU216DAVISVP2,2013-04-16 16:07:00,
2013-04-16 09:12:00,50.8,19.5,29.80,NW,317,17.0,34.0,29,0.00,,,0.00,WUHU216DAVISVP2,2013-04-16 16:12:00,
2013-04-16 09:17:00,50.8,19.5,29.80,WNW,291,21.0,34.0,29,0.00,,,0.00,WUHU216DAVISVP2,2013-04-16 16:17:00,
2013-04-16 09:22:00,50.9,19.5,29.81,West,280,27.0,34.0,29,0.00,,,0.00,WUHU216DAVISVP2,2013-04-16 16:22:00,
2013-04-16 09:27:00,51.2,20.0,29.80,WNW,289,21.0,33.0,29,0.00,,,0.00,WUHU216DAVISVP2,2013-04-16 16:27:00,
2013-04-16 09:32:00,51.5,19.4,29.80,West,280,18.0,33.0,28,0.00,,,0.00,WUHU216DAVISVP2,2013-04-16 16:32:00,
2013-04-16 09:37:00,51.8,18.8,29.80,WNW,287,17.0,33.0,27,0.00,,,0.00,WUHU216DAVISVP2,2013-04-16 16:37:00,
2013-04-16 09:42:00,52.7,17.8,29.80,NW,306,14.0,32.0,25,0.00,,,0.00,WUHU216DAVISVP2,2013-04-16 16:42:00,
2013-04-16 09:47:00,52.7,17.8,29.80,NW,305,24.0,29.0,25,0.00,,,0.00,WUHU216DAVISVP2,2013-04-16 16:47:00,
2013-04-16 09:52:00,52.5,18.6,29.80,WNW,285,17.0,29.0,26,0.00,,,0.00,WUHU216DAVISVP2,2013-04-16 16:52:00,
2013-04-16 09:57:00,53.1,17.1,29.80,WNW,284,16.0,29.0,24,0.00,,,0.00,WUHU216DAVISVP2,2013-04-16 16:57:00,
2013-04-16 10:02:00,53.4,17.4,29.80,WNW,302,23.0,29.0,24,0.00,,,0.00,WUHU216DAVISVP2,2013-04-16 17:02:00,
2013-04-16 10:07:00,54.0,16.9,29.79,WNW,282,16.0,28.0,23,0.00,,,0.00,WUHU216DAVISVP2,2013-04-16 17:07:00,
2013-04-16 10:13:00,54.3,15.1,29.80,WNW,298,19.0,28.0,21,0.00,,,0.00,WUHU216DAVISVP2,2013-04-16 17:13:00,
2013-04-16 10:18:00,54.6,14.2,29.80,WNW,300,13.0,26.0,20,0.00,,,0.00,WUHU216DAVISVP2,2013-04-16 17:18:00,
2013-04-16 10:23:00,54.4,14.1,29.80,WNW,296,17.0,26.0,20,0.00,,,0.00,WUHU216DAVISVP2,2013-04-16 17:23:00,
2013-04-16 10:28:00,54.6,13.1,29.81,WNW,298,21.0,25.0,19,0.00,,,0.00,WUHU216DAVISVP2,2013-04-16 17:28:00,
2013-04-16 10:33:00,54.4,14.1,29.80,WNW,302,13.0,24.0,20,0.00,,,0.00,WUHU216DAVISVP2,2013-04-16 17:33:00,
2013-04-16 10:38:00,55.5,15.0,29.80,WNW,296,13.0,24.0,20,0.00,,,0.00,WUHU216DAVISVP2,2013-04-16 17:38:00,
2013-04-16 10:43:00,55.4,14.9,29.81,NW,319,9.0,24.0,20,0.00,,,0.00,WUHU216DAVISVP2,2013-04-16 17:43:00,
2013-04-16 10:48:00,55.7,15.2,29.81,WNW,301,8.0,22.0,20,0.00,,,0.00,WUHU216DAVISVP2,2013-04-16 17:48:00,
2013-04-16 10:53:00,55.7,12.8,29.81,NNW,337,9.0,18.0,18,0.00,,,0.00,WUHU216DAVISVP2,2013-04-16 17:53:00,
2013-04-16 10:58:00,55.2,13.6,29.81,North,355,11.0,18.0,19,0.00,,,0.00,WUHU216DAVISVP2,2013-04-16 17:58:00,
2013-04-16 11:03:00,55.0,13.4,29.81,NNE,30,4.0,18.0,19,0.00,,,0.00,WUHU216DAVISVP2,2013-04-16 18:03:00,
2013-04-16 11:08:00,55.5,13.8,29.81,NNW,344,14.0,20.0,19,0.00,,,0.00,WUHU216DAVISVP2,2013-04-16 18:08:00,
2013-04-16 11:14:00,55.8,14.1,29.81,NNE,15,9.0,20.0,19,0.00,,,0.00,WUHU216DAVISVP2,2013-04-16 18:14:00,
2013-04-16 11:19:00,55.7,14.0,29.81,NNW,342,7.0,20.0,19,0.00,,,0.00,WUHU216DAVISVP2,2013-04-16 18:19:00,
2013-04-16 11:24:00,56.6,14.7,29.81,North,11,7.0,20.0,19,0.00,,,0.00,WUHU216DAVISVP2,2013-04-16 18:24:00,
2013-04-16 11:29:00,57.2,14.0,29.81,NNW,346,2.0,20.0,18,0.00,,,0.00,WUHU216DAVISVP2,2013-04-16 18:29:00,
2013-04-16 11:34:00,57.0,13.8,29.81,NW,317,14.0,16.0,18,0.00,,,0.00,WUHU216DAVISVP2,2013-04-16 18:34:00,
2013-04-16 11:39:00,56.6,14.7,29.81,NW,323,5.0,16.0,19,0.00,,,0.00,WUHU216DAVISVP2,2013-04-16 18:39:00,
2013-04-16 11:44:00,56.7,14.8,29.80,NNW,335,7.0,16.0,19,0.00,,,0.00,WUHU216DAVISVP2,2013-04-16 18:44:00,
2013-04-16 11:49:00,57.5,14.2,29.81,NW,311,13.0,20.0,18,0.00,,,0.00,WUHU216DAVISVP2,2013-04-16 18:49:00,
2013-04-16 11:54:00,56.5,14.7,29.81,NW,306,3.0,20.0,19,0.00,,,0.00,WUHU216DAVISVP2,2013-04-16 18:54:00,
2013-04-16 11:59:00,56.9,15.0,29.81,NNW,343,11.0,20.0,19,0.00,,,0.00,WUHU216DAVISVP2,2013-04-16 18:59:00,
2013-04-16 12:04:00,57.0,15.1,29.80,North,355,5.0,18.0,19,0.00,,,0.00,WUHU216DAVISVP2,2013-04-16 19:04:00,
2013-04-16 12:10:00,57.5,15.5,29.80,NW,324,14.0,18.0,19,0.00,,,0.00,WUHU216DAVISVP2,2013-04-16 19:10:00,
2013-04-16 12:15:00,57.4,15.4,29.80,NNW,335,4.0,18.0,19,0.00,,,0.00,WUHU216DAVISVP2,2013-04-16 19:15:00,
2013-04-16 12:20:00,57.6,15.6,29.80,NW,311,10.0,16.0,19,0.00,,,0.00,WUHU216DAVISVP2,2013-04-16 19:20:00,
2013-04-16 12:25:00,58.1,16.0,29.80,NNW,329,12.0,16.0,19,0.00,,,0.00,WUHU216DAVISVP2,2013-04-16 19:25:00,
2013-04-16 12:30:00,57.8,14.5,29.79,WNW,288,7.0,19.0,18,0.00,,,0.00,WUHU216DAVISVP2,2013-04-16 19:30:00,
2013-04-16 12:35:00,58.4,16.2,29.80,West,279,7.0,19.0,19,0.00,,,0.00,WUHU216DAVISVP2,2013-04-16 19:35:00,
2013-04-16 12:40:00,58.6,16.4,29.79,SSW,208,15.0,19.0,19,0.00,,,0.00,WUHU216DAVISVP2,2013-04-16 19:40:00,
2013-04-16 12:45:00,58.5,16.3,29.79,WSW,258,13.0,20.0,19,0.00,,,0.00,WUHU216DAVISVP2,2013-04-16 19:45:00,
2013-04-16 12:50:00,58.2,14.8,29.79,WNW,302,9.0,20.0,18,0.00,,,0.00,WUHU216DAVISVP2,2013-04-16 19:50:00,
2013-04-16 12:55:00,58.2,14.8,29.79,NNW,333,8.0,19.0,18,0.00,,,0.00,WUHU216DAVISVP2,2013-04-16 19:55:00,
2013-04-16 13:00:00,58.2,14.8,29.79,NNW,335,6.0,19.0,18,0.00,,,0.00,WUHU216DAVISVP2,2013-04-16 20:00:00,
2013-04-16 13:06:00,58.6,16.4,29.79,WNW,292,2.0,19.0,19,0.00,,,0.00,WUHU216DAVISVP2,2013-04-16 20:06:00,
2013-04-16 13:11:00,58.8,16.6,29.79,NW,326,9.0,19.0,19,0.00,,,0.00,WUHU216DAVISVP2,2013-04-16 20:11:00,
2013-04-16 13:16:00,58.8,15.3,29.79,NNW,348,4.0,18.0,18,0.00,,,0.00,WUHU216DAVISVP2,2013-04-16 20:16:00,
2013-04-16 13:21:00,58.7,15.2,29.79,WNW,294,17.0,18.0,18,0.00,,,0.00,WUHU216DAVISVP2,2013-04-16 20:21:00,
2013-04-16 13:26:00,59.9,16.2,29.79,WNW,288,13.0,19.0,18,0.00,,,0.00,WUHU216DAVISVP2,2013-04-16 20:26:00,
2013-04-16 13:31:00,59.7,16.1,29.79,WSW,254,10.0,19.0,18,0.00,,,0.00,WUHU216DAVISVP2,2013-04-16 20:31:00,
2013-04-16 13:36:00,59.7,16.1,29.78,WNW,300,15.0,19.0,18,0.00,,,0.00,WUHU216DAVISVP2,2013-04-16 20:36:00,
2013-04-16 13:41:00,59.6,17.2,29.79,WSW,251,14.0,20.0,19,0.00,,,0.00,WUHU216DAVISVP2,2013-04-16 20:41:00,
2013-04-16 13:46:00,59.4,23.4,29.79,SW,232,19.0,25.0,25,0.00,,,0.00,WUHU216DAVISVP2,2013-04-16 20:46:00,
2013-04-16 13:51:00,57.8,21.2,29.79,West,260,16.0,30.0,24,0.00,,,0.00,WUHU216DAVISVP2,2013-04-16 20:51:00,
2013-04-16 13:57:00,58.4,21.6,29.79,WSW,250,22.0,30.0,24,0.00,,,0.00,WUHU216DAVISVP2,2013-04-16 20:57:00,
2013-04-16 14:02:00,58.2,22.4,29.79,WSW,255,22.0,30.0,25,0.00,,,0.00,WUHU216DAVISVP2,2013-04-16 21:02:00,
2013-04-16 14:07:00,57.9,22.1,29.79,SW,236,19.0,30.0,25,0.00,,,0.00,WUHU216DAVISVP2,2013-04-16 21:07:00,
2013-04-16 14:12:00,58.1,22.3,29.79,WSW,240,20.0,33.0,25,0.00,,,0.00,WUHU216DAVISVP2,2013-04-16 21:12:00,
2013-04-16 14:17:00,58.9,21.1,29.79,WSW,258,21.0,33.0,23,0.00,,,0.00,WUHU216DAVISVP2,2013-04-16 21:17:00,
2013-04-16 14:22:00,58.4,21.7,29.79,WSW,243,22.0,33.0,24,0.00,,,0.00,WUHU216DAVISVP2,2013-04-16 21:22:00,
2013-04-16 14:27:00,58.6,21.9,29.79,WSW,243,24.0,33.0,24,0.00,,,0.00,WUHU216DAVISVP2,2013-04-16 21:27:00,
2013-04-16 14:32:00,58.1,19.3,29.79,WSW,257,11.0,31.0,22,0.00,,,0.00,WUHU216DAVISVP2,2013-04-16 21:32:00,
2013-04-16 14:37:00,58.2,19.4,29.80,WSW,246,29.0,32.0,22,0.00,,,0.00,WUHU216DAVISVP2,2013-04-16 21:37:00,
2013-04-16 14:42:00,58.3,21.5,29.80,West,264,9.0,32.0,24,0.00,,,0.00,WUHU216DAVISVP2,2013-04-16 21:42:00,
2013-04-16 14:47:00,58.4,20.6,29.79,SW,234,14.0,32.0,23,0.00,,,0.00,WUHU216DAVISVP2,2013-04-16 21:47:00,
2013-04-16 14:52:00,57.9,19.2,29.80,SW,228,22.0,33.0,22,0.00,,,0.00,WUHU216DAVISVP2,2013-04-16 21:52:00,
2013-04-16 14:58:00,57.9,23.0,29.80,SW,220,19.0,33.0,26,0.00,,,0.00,WUHU216DAVISVP2,2013-04-16 21:58:00,
2013-04-16 15:03:00,57.0,23.1,29.80,South,188,16.0,33.0,27,0.00,,,0.00,WUHU216DAVISVP2,2013-04-16 22:03:00,
2013-04-16 15:08:00,57.7,23.8,29.80,WSW,244,15.0,33.0,27,0.00,,,0.00,WUHU216DAVISVP2,2013-04-16 22:08:00,
2013-04-16 15:13:00,57.9,23.9,29.80,WSW,253,9.0,29.0,27,0.00,,,0.00,WUHU216DAVISVP2,2013-04-16 22:13:00,
2013-04-16 15:18:00,58.0,23.1,29.80,WSW,245,20.0,28.0,26,0.00,,,0.00,WUHU216DAVISVP2,2013-04-16 22:18:00,
2013-04-16 15:23:00,57.7,23.0,29.79,WSW,246,16.0,28.0,26,0.00,,,0.00,WUHU216DAVISVP2,2013-04-16 22:23:00,
2013-04-16 15:28:00,58.2,22.5,29.79,WSW,246,18.0,28.0,25,0.00,,,0.00,WUHU216DAVISVP2,2013-04-16 22:28:00,
2013-04-16 15:33:00,58.4,13.7,29.80,West,271,21.0,29.0,17,0.00,,,0.00,WUHU216DAVISVP2,2013-04-16 22:33:00,
2013-04-16 15:38:00,58.5,10.9,29.80,WNW,283,22.0,29.0,15,0.00,,,0.00,WUHU216DAVISVP2,2013-04-16 22:38:00,
2013-04-16 15:43:00,58.2,12.1,29.80,NW,309,21.0,33.0,16,0.00,,,0.00,WUHU216DAVISVP2,2013-04-16 22:43:00,
2013-04-16 15:48:00,58.7,12.6,29.79,West,280,26.0,33.0,16,0.00,,,0.00,WUHU216DAVISVP2,2013-04-16 22:48:00,
2013-04-16 15:53:00,58.4,13.7,29.80,West,274,17.0,33.0,17,0.00,,,0.00,WUHU216DAVISVP2,2013-04-16 22:53:00,
2013-04-16 15:59:00,58.4,12.3,29.80,WNW,301,24.0,33.0,16,0.00,,,0.00,WUHU216DAVISVP2,2013-04-16 22:59:00,
2013-04-16 16:04:00,57.8,11.8,29.80,West,267,15.0,32.0,16,0.00,,,0.00,WUHU216DAVISVP2,2013-04-16 23:04:00,
2013-04-16 16:09:00,57.4,12.9,29.81,WNW,284,24.0,36.0,17,0.00,,,0.00,WUHU216DAVISVP2,2013-04-16 23:09:00,
2013-04-16 16:14:00,57.3,9.9,29.80,West,270,32.0,36.0,15,0.00,,,0.00,WUHU216DAVISVP2,2013-04-16 23:14:00,
2013-04-16 16:19:00,57.1,11.2,29.80,West,269,21.0,38.0,16,0.00,,,0.00,WUHU216DAVISVP2,2013-04-16 23:19:00,
2013-04-16 16:24:00,57.4,11.5,29.80,WSW,257,18.0,38.0,16,0.00,,,0.00,WUHU216DAVISVP2,2013-04-16 23:24:00,
2013-04-16 16:29:00,57.9,11.9,29.80,West,279,29.0,38.0,16,0.00,,,0.00,WUHU216DAVISVP2,2013-04-16 23:29:00,
2013-04-16 16:34:00,57.4,11.5,29.80,West,279,21.0,34.0,16,0.00,,,0.00,WUHU216DAVISVP2,2013-04-16 23:34:00,
2013-04-16 16:39:00,57.3,12.8,29.80,West,278,17.0,40.0,17,0.00,,,0.00,WUHU216DAVISVP2,2013-04-16 23:39:00,
2013-04-16 16:44:00,57.4,12.9,29.80,West,279,23.0,40.0,17,0.00,,,0.00,WUHU216DAVISVP2,2013-04-16 23:44:00,
2013-04-16 16:49:00,57.3,11.4,29.80,WNW,295,19.0,40.0,16,0.00,,,0.00,WUHU216DAVISVP2,2013-04-16 23:49:00,
2013-04-16 16:55:00,56.9,11.1,29.80,West,277,25.0,39.0,16,0.00,,,0.00,WUHU216DAVISVP2,2013-04-16 23:55:00,
2013-04-16 17:00:00,56.7,9.5,29.80,WNW,298,27.0,39.0,15,0.00,,,0.00,WUHU216DAVISVP2,2013-04-17 00:00:00,
2013-04-16 17:05:00,56.8,9.5,29.80,West,267,28.0,38.0,15,0.00,,,0.00,WUHU216DAVISVP2,2013-04-17 00:05:00,
2013-04-16 17:10:00,56.8,9.5,29.80,West,260,21.0,38.0,15,0.00,,,0.00,WUHU216DAVISVP2,2013-04-17 00:10:00,
2013-04-16 17:15:00,56.9,9.6,29.81,NW,306,25.0,37.0,15,0.00,,,0.00,WUHU216DAVISVP2,2013-04-17 00:15:00,
2013-04-16 17:20:00,56.6,9.4,29.80,WNW,284,23.0,37.0,15,0.00,,,0.00,WUHU216DAVISVP2,2013-04-17 00:20:00,
2013-04-16 17:25:00,56.3,10.6,29.81,WNW,284,18.0,38.0,16,0.00,,,0.00,WUHU216DAVISVP2,2013-04-17 00:25:00,
2013-04-16 17:30:00,56.2,9.1,29.81,WNW,302,22.0,38.0,15,0.00,,,0.00,WUHU216DAVISVP2,2013-04-17 00:30:00,
2013-04-16 17:35:00,55.9,7.3,29.81,WNW,294,25.0,38.0,14,0.00,,,0.00,WUHU216DAVISVP2,2013-04-17 00:35:00,
2013-04-16 17:40:00,56.2,5.8,29.81,WNW,300,32.0,37.0,13,0.00,,,0.00,WUHU216DAVISVP2,2013-04-17 00:40:00,
2013-04-16 17:45:00,56.0,5.7,29.82,WNW,288,22.0,37.0,13,0.00,,,0.00,WUHU216DAVISVP2,2013-04-17 00:45:00,
2013-04-16 17:50:00,56.0,11.7,29.82,West,275,16.0,37.0,17,0.00,,,0.00,WUHU216DAVISVP2,2013-04-17 00:50:00,
2013-04-16 17:55:00,55.9,11.6,29.82,WNW,292,19.0,37.0,17,0.00,,,0.00,WUHU216DAVISVP2,2013-04-17 00:55:00,
2013-04-16 18:01:00,55.5,12.6,29.82,WNW,290,17.0,36.0,18,0.00,,,0.00,WUHU216DAVISVP2,2013-04-17 01:01:00,
2013-04-16 18:06:00,55.7,12.8,29.82,WNW,290,24.0,36.0,18,0.00,,,0.00,WUHU216DAVISVP2,2013-04-17 01:06:00,
2013-04-16 18:11:00,55.1,13.5,29.82,West,280,24.0,36.0,19,0.00,,,0.00,WUHU216DAVISVP2,2013-04-17 01:11:00,
2013-04-16 18:16:00,55.4,13.7,29.83,WNW,283,16.0,36.0,19,0.00,,,0.00,WUHU216DAVISVP2,2013-04-17 01:16:00,
2013-04-16 18:21:00,55.0,15.7,29.83,West,279,12.0,33.0,21,0.00,,,0.00,WUHU216DAVISVP2,2013-04-17 01:21:00,
2013-04-16 18:26:00,54.7,15.4,29.83,West,279,21.0,33.0,21,0.00,,,0.00,WUHU216DAVISVP2,2013-04-17 01:26:00,
2013-04-16 18:31:00,54.3,15.1,29.83,West,276,22.0,29.0,21,0.00,,,0.00,WUHU216DAVISVP2,2013-04-17 01:31:00,
2013-04-16 18:36:00,53.8,15.7,29.83,West,281,18.0,30.0,22,0.00,,,0.00,WUHU216DAVISVP2,2013-04-17 01:36:00,
2013-04-16 18:41:00,53.7,16.6,29.83,West,268,18.0,30.0,23,0.00,,,0.00,WUHU216DAVISVP2,2013-04-17 01:41:00,
2013-04-16 18:46:00,53.6,16.6,29.83,WNW,289,21.0,30.0,23,0.00,,,0.00,WUHU216DAVISVP2,2013-04-17 01:46:00,
2013-04-16 18:51:00,53.2,17.2,29.83,WNW,282,15.0,30.0,24,0.00,,,0.00,WUHU216DAVISVP2,2013-04-17 01:51:00,
2013-04-16 18:57:00,53.1,17.2,29.84,WNW,298,16.0,30.0,24,0.00,,,0.00,WUHU216DAVISVP2,2013-04-17 01:57:00,
2013-04-16 19:02:00,52.9,17.0,29.83,West,279,14.0,30.0,24,0.00,,,0.00,WUHU216DAVISVP2,2013-04-17 02:02:00,
2013-04-16 19:07:00,52.6,17.7,29.84,WNW,297,17.0,28.0,25,0.00,,,0.00,WUHU216DAVISVP2,2013-04-17 02:07:00,
2013-04-16 19:12:00,52.3,18.4,29.84,WNW,292,14.0,28.0,26,0.00,,,0.00,WUHU216DAVISVP2,2013-04-17 02:12:00,
2013-04-16 19:17:00,52.0,19.0,29.84,NNW,328,15.0,32.0,27,0.00,,,0.00,WUHU216DAVISVP2,2013-04-17 02:17:00,
2013-04-16 19:22:00,51.7,16.8,29.84,WNW,287,20.0,34.0,25,0.00,,,0.00,WUHU216DAVISVP2,2013-04-17 02:22:00,
2013-04-16 19:27:00,51.4,15.7,29.85,WNW,300,24.0,34.0,24,0.00,,,0.00,WUHU216DAVISVP2,2013-04-17 02:27:00,
2013-04-16 19:32:00,50.9,15.2,29.85,WNW,298,24.0,34.0,24,0.00,,,0.00,WUHU216DAVISVP2,2013-04-17 02:32:00,
2013-04-16 19:37:00,50.6,15.9,29.85,NW,304,15.0,34.0,25,0.00,,,0.00,WUHU216DAVISVP2,2013-04-17 02:37:00,
2013-04-16 19:42:00,50.5,16.7,29.85,WNW,288,22.0,33.0,26,0.00,,,0.00,WUHU216DAVISVP2,2013-04-17 02:42:00,
2013-04-16 19:47:00,50.4,17.5,29.85,NW,305,12.0,30.0,27,0.00,,,0.00,WUHU216DAVISVP2,2013-04-17 02:47:00,
2013-04-16 19:52:00,50.4,17.5,29.86,WNW,288,14.0,30.0,27,0.00,,,0.00,WUHU216DAVISVP2,2013-04-17 02:52:00,
2013-04-16 19:57:00,50.3,18.4,29.86,WNW,303,18.0,30.0,28,0.00,,,0.00,WUHU216DAVISVP2,2013-04-17 02:57:00,
2013-04-16 20:03:00,50.1,18.2,29.86,NW,315,19.0,30.0,28,0.00,,,0.00,WUHU216DAVISVP2,2013-04-17 03:03:00,
2013-04-16 20:08:00,50.1,18.2,29.86,NW,311,25.0,30.0,28,0.00,,,0.00,WUHU216DAVISVP2,2013-04-17 03:08:00,
2013-04-16 20:13:00,50.4,17.6,29.87,WNW,303,17.0,34.0,27,0.00,,,0.00,WUHU216DAVISVP2,2013-04-17 03:13:00,
2013-04-16 20:18:00,50.5,17.6,29.87,NW,312,19.0,34.0,27,0.00,,,0.00,WUHU216DAVISVP2,2013-04-17 03:18:00,
2013-04-16 20:23:00,50.4,18.3,29.88,NW,306,16.0,34.0,28,0.00,,,0.00,WUHU216DAVISVP2,2013-04-17 03:23:00,
2013-04-16 20:28:00,50.4,17.5,29.87,WNW,303,11.0,29.0,27,0.00,,,0.00,WUHU216DAVISVP2,2013-04-17 03:28:00,
2013-04-16 20:33:00,50.5,17.6,29.88,NW,316,17.0,29.0,27,0.00,,,0.00,WUHU216DAVISVP2,2013-04-17 03:33:00,
2013-04-16 20:38:00,50.5,17.6,29.88,WNW,292,9.0,29.0,27,0.00,,,0.00,WUHU216DAVISVP2,2013-04-17 03:38:00,
2013-04-16 20:43:00,50.5,17.6,29.88,NW,317,14.0,25.0,27,0.00,,,0.00,WUHU216DAVISVP2,2013-04-17 03:43:00,
2013-04-16 20:48:00,50.8,18.0,29.89,WNW,300,21.0,25.0,27,0.00,,,0.00,WUHU216DAVISVP2,2013-04-17 03:48:00,
2013-04-16 20:53:00,50.8,18.0,29.90,NW,315,13.0,25.0,27,0.00,,,0.00,WUHU216DAVISVP2,2013-04-17 03:53:00,
2013-04-16 20:58:00,50.6,17.8,29.90,NNW,331,16.0,25.0,27,0.00,,,0.00,WUHU216DAVISVP2,2013-04-17 03:58:00,
2013-04-16 21:04:00,50.6,18.5,29.91,NW,325,11.0,22.0,28,0.00,,,0.00,WUHU216DAVISVP2,2013-04-17 04:04:00,
2013-04-16 21:09:00,50.6,18.5,29.91,North,360,19.0,21.0,28,0.00,,,0.00,WUHU216DAVISVP2,2013-04-17 04:09:00,
2013-04-16 21:14:00,50.6,18.5,29.91,NNW,346,11.0,21.0,28,0.00,,,0.00,WUHU216DAVISVP2,2013-04-17 04:14:00,
2013-04-16 21:19:00,50.5,19.2,29.92,North,355,14.0,21.0,29,0.00,,,0.00,WUHU216DAVISVP2,2013-04-17 04:19:00,
2013-04-16 21:24:00,50.4,19.1,29.92,NNW,332,7.0,21.0,29,0.00,,,0.00,WUHU216DAVISVP2,2013-04-17 04:24:00,
2013-04-16 21:29:00,50.4,19.1,29.92,NNW,340,11.0,21.0,29,0.00,,,0.00,WUHU216DAVISVP2,2013-04-17 04:29:00,
2013-04-16 21:34:00,50.4,19.1,29.93,North,11,24.0,26.0,29,0.00,,,0.00,WUHU216DAVISVP2,2013-04-17 04:34:00,
2013-04-16 21:39:00,50.4,19.1,29.93,NNW,338,11.0,26.0,29,0.00,,,0.00,WUHU216DAVISVP2,2013-04-17 04:39:00,
2013-04-16 21:44:00,50.3,19.8,29.93,NW,317,6.0,26.0,30,0.00,,,0.00,WUHU216DAVISVP2,2013-04-17 04:44:00,
2013-04-16 21:49:00,50.2,19.7,29.93,NW,325,11.0,26.0,30,0.00,,,0.00,WUHU216DAVISVP2,2013-04-17 04:49:00,
2013-04-16 21:54:00,50.2,19.7,29.93,NW,309,15.0,18.0,30,0.00,,,0.00,WUHU216DAVISVP2,2013-04-17 04:54:00,
2013-04-16 21:59:00,50.2,19.7,29.94,NW,315,14.0,20.0,30,0.00,,,0.00,WUHU216DAVISVP2,2013-04-17 04:59:00,
2013-04-16 22:04:00,50.2,20.5,29.94,NW,307,14.0,22.0,31,0.00,,,0.00,WUHU216DAVISVP2,2013-04-17 05:04:00,
2013-04-16 22:10:00,50.1,20.4,29.94,NW,313,11.0,22.0,31,0.00,,,0.00,WUHU216DAVISVP2,2013-04-17 05:10:00,
2013-04-16 22:15:00,49.9,20.2,29.94,NW,311,11.0,22.0,31,0.00,,,0.00,WUHU216DAVISVP2,2013-04-17 05:15:00,
2013-04-16 22:20:00,49.9,20.2,29.94,NW,314,15.0,22.0,31,0.00,,,0.00,WUHU216DAVISVP2,2013-04-17 05:20:00,
2013-04-16 22:25:00,50.0,19.5,29.94,WNW,288,14.0,22.0,30,0.00,,,0.00,WUHU216DAVISVP2,2013-04-17 05:25:00,
2013-04-16 22:30:00,49.9,19.5,29.94,WNW,293,12.0,22.0,30,0.00,,,0.00,WUHU216DAVISVP2,2013-04-17 05:30:00,
2013-04-16 22:35:00,49.9,19.5,29.94,NW,304,12.0,22.0,30,0.00,,,0.00,WUHU216DAVISVP2,2013-04-17 05:35:00,
2013-04-16 22:40:00,49.9,19.5,29.94,NW,321,12.0,22.0,30,0.00,,,0.00,WUHU216DAVISVP2,2013-04-17 05:40:00,
2013-04-16 22:45:00,49.9,19.5,29.95,NW,325,12.0,21.0,30,0.00,,,0.00,WUHU216DAVISVP2,2013-04-17 05:45:00,
2013-04-16 22:50:00,50.0,19.5,29.95,WNW,302,14.0,23.0,30,0.00,,,0.00,WUHU216DAVISVP2,2013-04-17 05:50:00,
2013-04-16 22:55:00,49.9,19.5,29.95,NNW,327,6.0,23.0,30,0.00,,,0.00,WUHU216DAVISVP2,2013-04-17 05:55:00,
2013-04-16 23:00:00,49.8,19.4,29.95,NW,314,10.0,23.0,30,0.00,,,0.00,WUHU216DAVISVP2,2013-04-17 06:00:00,
2013-04-16 23:05:00,49.7,19.3,29.95,NNW,341,5.0,23.0,30,0.00,,,0.00,WUHU216DAVISVP2,2013-04-17 06:05:00,
2013-04-16 23:10:00,49.6,20.0,29.96,NNW,335,8.0,19.0,31,0.00,,,0.00,WUHU216DAVISVP2,2013-04-17 06:10:00,
2013-04-16 23:16:00,49.4,19.8,29.95,North,350,14.0,19.0,31,0.00,,,0.00,WUHU216DAVISVP2,2013-04-17 06:16:00,
2013-04-16 23:21:00,49.5,19.9,29.96,NNW,343,11.0,18.0,31,0.00,,,0.00,WUHU216DAVISVP2,2013-04-17 06:21:00,
2013-04-16 23:26:00,49.5,19.9,29.96,NNW,338,7.0,18.0,31,0.00,,,0.00,WUHU216DAVISVP2,2013-04-17 06:26:00,
2013-04-16 23:31:00,49.4,19.8,29.96,NW,317,11.0,18.0,31,0.00,,,0.00,WUHU216DAVISVP2,2013-04-17 06:31:00,
2013-04-16 23:36:00,49.6,19.2,29.96,NW,314,12.0,16.0,30,0.00,,,0.00,WUHU216DAVISVP2,2013-04-17 06:36:00,
2013-04-16 23:41:00,49.9,19.5,29.96,NW,313,14.0,17.0,30,0.00,,,0.00,WUHU216DAVISVP2,2013-04-17 06:41:00,
2013-04-16 23:46:00,49.9,19.5,29.96,NW,305,13.0,18.0,30,0.00,,,0.00,WUHU216DAVISVP2,2013-04-17 06:46:00,
2013-04-16 23:51:00,49.8,19.4,29.96,NNW,327,13.0,18.0,30,0.00,,,0.00,WUHU216DAVISVP2,2013-04-17 06:51:00,
2013-04-16 23:56:00,49.7,19.3,29.96,NW,315,11.0,18.0,30,0.00,,,0.00,WUHU216DAVISVP2,2013-04-17 06:56:00,